sensor_id;sensor_type;location;lat;lon;timestamp;temperature;humidity
46458;DHT22;32155;54.076;12.092;2022-07-09T03:14:38;15.70;99.90
46458;DHT22;32155;54.076;12.092;2022-07-09T03:17:04;15.60;99.90
46458;DHT22;32155;54.076;12.092;2022-07-09T03:19:29;15.60;99.90
46458;DHT22;32155;54.076;12.092;2022-07-09T03:21:55;15.60;99.90
46458;DHT22;32155;54.076;12.092;2022-07-09T03:24:23;15.60;99.90
46458;DHT22;32155;54.076;12.092;2022-07-09T03:26:49;15.60;99.90
46458;DHT22;32155;54.076;12.092;2022-07-09T03:29:16;15.60;99.90
46458;DHT22;32155;54.076;12.092;2022-07-09T03:31:42;15.60;99.90
46458;DHT22;32155;54.076;12.092;2022-07-09T03:34:07;15.60;99.90
46458;DHT22;32155;54.076;12.092;2022-07-09T03:36:33;15.60;99.90
46458;DHT22;32155;54.076;12.092;2022-07-09T03:38:58;15.60;99.90
46458;DHT22;32155;54.076;12.092;2022-07-09T03:41:24;15.70;99.90
46458;DHT22;32155;54.076;12.092;2022-07-09T03:43:49;15.70;99.90
46458;DHT22;32155;54.076;12.092;2022-07-09T03:46:15;15.80;99.90
46458;DHT22;32155;54.076;12.092;2022-07-09T03:48:40;15.80;99.90
46458;DHT22;32155;54.076;12.092;2022-07-09T03:51:06;15.70;99.90
46458;DHT22;32155;54.076;12.092;2022-07-09T03:53:32;15.70;99.90
46458;DHT22;32155;54.076;12.092;2022-07-09T03:55:57;15.70;99.90
46458;DHT22;32155;54.076;12.092;2022-07-09T03:58:23;15.80;99.90
46458;DHT22;32155;54.076;12.092;2022-07-09T04:00:48;15.70;99.90
46458;DHT22;32155;54.076;12.092;2022-07-09T04:03:16;15.70;99.90
46458;DHT22;32155;54.076;12.092;2022-07-09T04:05:42;15.70;99.90
46458;DHT22;32155;54.076;12.092;2022-07-09T04:08:10;15.70;99.90
46458;DHT22;32155;54.076;12.092;2022-07-09T04:10:40;15.70;99.90
46458;DHT22;32155;54.076;12.092;2022-07-09T04:13:06;15.70;99.90
46458;DHT22;32155;54.076;12.092;2022-07-09T04:15:31;15.80;99.90
46458;DHT22;32155;54.076;12.092;2022-07-09T04:17:57;15.70;99.90
46458;DHT22;32155;54.076;12.092;2022-07-09T04:20:23;15.70;99.90
46458;DHT22;32155;54.076;12.092;2022-07-09T04:22:51;15.70;99.90
46458;DHT22;32155;54.076;12.092;2022-07-09T04:25:18;15.70;99.90
46458;DHT22;32155;54.076;12.092;2022-07-09T04:27:44;15.70;99.90
46458;DHT22;32155;54.076;12.092;2022-07-09T04:30:10;15.70;99.90
46458;DHT22;32155;54.076;12.092;2022-07-09T04:32:36;15.90;99.90
46458;DHT22;32155;54.076;12.092;2022-07-09T04:35:04;15.90;99.90
46458;DHT22;32155;54.076;12.092;2022-07-09T04:37:30;16.00;99.90
46458;DHT22;32155;54.076;12.092;2022-07-09T04:39:55;15.90;99.90
46458;DHT22;32155;54.076;12.092;2022-07-09T04:42:23;16.00;99.90
46458;DHT22;32155;54.076;12.092;2022-07-09T04:44:48;16.00;99.90
46458;DHT22;32155;54.076;12.092;2022-07-09T04:47:14;15.90;99.90
46458;DHT22;32155;54.076;12.092;2022-07-09T04:49:42;15.90;99.90
46458;DHT22;32155;54.076;12.092;2022-07-09T04:52:07;15.90;99.90
46458;DHT22;32155;54.076;12.092;2022-07-09T04:54:33;15.90;99.90
46458;DHT22;32155;54.076;12.092;2022-07-09T04:56:58;16.00;99.90
46458;DHT22;32155;54.076;12.092;2022-07-09T04:59:24;16.10;99.90
46458;DHT22;32155;54.076;12.092;2022-07-09T05:01:49;16.20;99.90
46458;DHT22;32155;54.076;12.092;2022-07-09T05:04:15;16.30;99.90
46458;DHT22;32155;54.076;12.092;2022-07-09T05:06:41;16.30;99.90
46458;DHT22;32155;54.076;12.092;2022-07-09T05:09:06;16.30;99.90
46458;DHT22;32155;54.076;12.092;2022-07-09T05:11:32;16.30;99.90
46458;DHT22;32155;54.076;12.092;2022-07-09T05:13:58;16.40;99.90
46458;DHT22;32155;54.076;12.092;2022-07-09T05:16:26;16.50;99.90
46458;DHT22;32155;54.076;12.092;2022-07-09T05:18:52;16.50;99.90
46458;DHT22;32155;54.076;12.092;2022-07-09T05:21:20;16.60;99.90
46458;DHT22;32155;54.076;12.092;2022-07-09T05:23:48;16.60;99.90
46458;DHT22;32155;54.076;12.092;2022-07-09T05:26:16;16.70;99.90
46458;DHT22;32155;54.076;12.092;2022-07-09T05:28:42;16.70;99.90
46458;DHT22;32155;54.076;12.092;2022-07-09T05:31:07;16.80;99.90
46458;DHT22;32155;54.076;12.092;2022-07-09T05:33:33;16.80;99.90
46458;DHT22;32155;54.076;12.092;2022-07-09T05:35:58;16.80;99.90
46458;DHT22;32155;54.076;12.092;2022-07-09T05:38:24;16.80;99.90
46458;DHT22;32155;54.076;12.092;2022-07-09T05:40:49;16.80;99.90
46458;DHT22;32155;54.076;12.092;2022-07-09T05:43:16;16.70;99.90
46458;DHT22;32155;54.076;12.092;2022-07-09T05:45:41;16.60;99.90
46458;DHT22;32155;54.076;12.092;2022-07-09T05:48:07;16.40;99.90
46458;DHT22;32155;54.076;12.092;2022-07-09T05:50:32;16.40;99.90
46458;DHT22;32155;54.076;12.092;2022-07-09T05:52:58;16.50;99.90
46458;DHT22;32155;54.076;12.092;2022-07-09T05:55:26;16.70;99.90
46458;DHT22;32155;54.076;12.092;2022-07-09T05:57:51;16.80;99.90
46458;DHT22;32155;54.076;12.092;2022-07-09T06:00:17;16.80;99.90
46458;DHT22;32155;54.076;12.092;2022-07-09T06:02:45;16.90;99.90
46458;DHT22;32155;54.076;12.092;2022-07-09T06:05:11;16.80;99.90
46458;DHT22;32155;54.076;12.092;2022-07-09T06:07:38;16.90;99.90
46458;DHT22;32155;54.076;12.092;2022-07-09T06:10:10;16.80;99.90
46458;DHT22;32155;54.076;12.092;2022-07-09T06:12:37;16.90;99.90
46458;DHT22;32155;54.076;12.092;2022-07-09T06:15:03;16.90;99.90
46458;DHT22;32155;54.076;12.092;2022-07-09T06:17:29;17.00;99.90
46458;DHT22;32155;54.076;12.092;2022-07-09T06:19:59;17.00;99.90
46458;DHT22;32155;54.076;12.092;2022-07-09T06:22:24;16.90;99.90
46458;DHT22;32155;54.076;12.092;2022-07-09T06:24:50;16.90;99.90
46458;DHT22;32155;54.076;12.092;2022-07-09T06:27:18;16.90;99.90
46458;DHT22;32155;54.076;12.092;2022-07-09T06:29:43;17.00;99.90
46458;DHT22;32155;54.076;12.092;2022-07-09T06:32:09;17.10;99.90
46458;DHT22;32155;54.076;12.092;2022-07-09T06:34:37;17.10;99.90
46458;DHT22;32155;54.076;12.092;2022-07-09T06:37:02;17.40;99.90
46458;DHT22;32155;54.076;12.092;2022-07-09T06:39:28;17.60;99.90
46458;DHT22;32155;54.076;12.092;2022-07-09T06:42:16;17.70;99.90
46458;DHT22;32155;54.076;12.092;2022-07-09T06:44:42;17.80;99.90
46458;DHT22;32155;54.076;12.092;2022-07-09T06:47:07;17.90;99.90
46458;DHT22;32155;54.076;12.092;2022-07-09T06:49:33;18.40;99.90
46458;DHT22;32155;54.076;12.092;2022-07-09T06:51:58;18.60;99.90
46458;DHT22;32155;54.076;12.092;2022-07-09T06:54:27;18.40;99.90
46458;DHT22;32155;54.076;12.092;2022-07-09T06:56:56;18.10;99.90
46458;DHT22;32155;54.076;12.092;2022-07-09T06:59:24;18.10;99.90
46458;DHT22;32155;54.076;12.092;2022-07-09T07:01:50;18.10;99.90
46458;DHT22;32155;54.076;12.092;2022-07-09T07:04:18;18.30;99.90
46458;DHT22;32155;54.076;12.092;2022-07-09T07:06:45;18.40;99.90
46458;DHT22;32155;54.076;12.092;2022-07-09T07:09:12;18.60;99.90
46458;DHT22;32155;54.076;12.092;2022-07-09T07:11:37;19.30;99.90
46458;DHT22;32155;54.076;12.092;2022-07-09T07:14:03;19.70;99.90
46458;DHT22;32155;54.076;12.092;2022-07-09T07:16:28;19.70;99.90
46458;DHT22;32155;54.076;12.092;2022-07-09T07:18:54;19.80;99.90
46458;DHT22;32155;54.076;12.092;2022-07-09T07:21:19;19.90;99.90
46458;DHT22;32155;54.076;12.092;2022-07-09T07:23:45;19.90;99.90
46458;DHT22;32155;54.076;12.092;2022-07-09T07:26:10;20.00;99.90
46458;DHT22;32155;54.076;12.092;2022-07-09T07:28:36;20.30;99.90
46458;DHT22;32155;54.076;12.092;2022-07-09T07:31:01;20.80;99.90
46458;DHT22;32155;54.076;12.092;2022-07-09T07:33:29;21.90;99.90
46458;DHT22;32155;54.076;12.092;2022-07-09T07:35:55;22.70;99.90
46458;DHT22;32155;54.076;12.092;2022-07-09T07:38:21;23.70;99.90
46458;DHT22;32155;54.076;12.092;2022-07-09T07:40:47;22.80;99.90
46458;DHT22;32155;54.076;12.092;2022-07-09T07:43:13;22.10;99.90
46458;DHT22;32155;54.076;12.092;2022-07-09T07:45:38;22.00;99.90
46458;DHT22;32155;54.076;12.092;2022-07-09T07:48:05;22.20;99.90
46458;DHT22;32155;54.076;12.092;2022-07-09T07:50:31;23.50;99.90
46458;DHT22;32155;54.076;12.092;2022-07-09T07:52:58;25.20;99.90
46458;DHT22;32155;54.076;12.092;2022-07-09T07:55:23;25.20;99.90
46458;DHT22;32155;54.076;12.092;2022-07-09T07:57:51;24.90;99.90
46458;DHT22;32155;54.076;12.092;2022-07-09T08:00:16;25.00;99.90
46458;DHT22;32155;54.076;12.092;2022-07-09T08:02:44;24.10;99.90
46458;DHT22;32155;54.076;12.092;2022-07-09T08:05:10;23.30;99.90
46458;DHT22;32155;54.076;12.092;2022-07-09T08:07:35;22.70;99.90
46458;DHT22;32155;54.076;12.092;2022-07-09T08:10:01;24.40;99.90
46458;DHT22;32155;54.076;12.092;2022-07-09T08:12:26;24.10;99.90
46458;DHT22;32155;54.076;12.092;2022-07-09T08:14:55;23.90;99.90
46458;DHT22;32155;54.076;12.092;2022-07-09T08:17:20;23.70;99.90
46458;DHT22;32155;54.076;12.092;2022-07-09T08:19:46;23.10;99.90
46458;DHT22;32155;54.076;12.092;2022-07-09T08:22:11;22.70;99.90
46458;DHT22;32155;54.076;12.092;2022-07-09T08:24:37;22.50;99.90
46458;DHT22;32155;54.076;12.092;2022-07-09T08:27:02;22.00;99.90
46458;DHT22;32155;54.076;12.092;2022-07-09T08:29:28;21.20;99.90
46458;DHT22;32155;54.076;12.092;2022-07-09T08:31:53;21.90;99.90
46458;DHT22;32155;54.076;12.092;2022-07-09T08:34:19;22.30;99.90
46458;DHT22;32155;54.076;12.092;2022-07-09T08:36:47;22.70;99.90
46458;DHT22;32155;54.076;12.092;2022-07-09T08:39:12;23.30;99.90
46458;DHT22;32155;54.076;12.092;2022-07-09T08:41:38;25.10;99.90
46458;DHT22;32155;54.076;12.092;2022-07-09T08:44:03;27.10;99.90
46458;DHT22;32155;54.076;12.092;2022-07-09T08:46:29;27.60;99.90
46458;DHT22;32155;54.076;12.092;2022-07-09T08:48:59;27.70;99.90
46458;DHT22;32155;54.076;12.092;2022-07-09T08:51:27;28.70;99.90
46458;DHT22;32155;54.076;12.092;2022-07-09T08:53:54;28.00;99.90
46458;DHT22;32155;54.076;12.092;2022-07-09T08:56:20;27.10;99.90
46458;DHT22;32155;54.076;12.092;2022-07-09T08:58:46;28.40;99.90
46458;DHT22;32155;54.076;12.092;2022-07-09T09:01:14;30.10;99.90
46458;DHT22;32155;54.076;12.092;2022-07-09T09:03:43;30.50;99.90
46458;DHT22;32155;54.076;12.092;2022-07-09T09:06:12;31.60;99.90
46458;DHT22;32155;54.076;12.092;2022-07-09T09:08:42;30.30;99.90
46458;DHT22;32155;54.076;12.092;2022-07-09T14:57:50;21.10;99.90
46458;DHT22;32155;54.076;12.092;2022-07-09T15:07:40;21.40;99.90
46458;DHT22;32155;54.076;12.092;2022-07-09T15:20:25;21.00;99.90
46458;DHT22;32155;54.076;12.092;2022-07-09T15:23:11;20.80;99.90
46458;DHT22;32155;54.076;12.092;2022-07-09T15:28:49;20.90;99.90
46458;DHT22;32155;54.076;12.092;2022-07-09T15:41:58;20.20;99.90
46458;DHT22;32155;54.076;12.092;2022-07-09T15:44:26;20.30;99.90
46458;DHT22;32155;54.076;12.092;2022-07-09T15:46:55;20.30;99.90
46458;DHT22;32155;54.076;12.092;2022-07-09T15:49:21;20.10;99.90
46458;DHT22;32155;54.076;12.092;2022-07-09T16:01:14;19.90;99.90
46458;DHT22;32155;54.076;12.092;2022-07-09T16:03:58;19.90;99.90
46458;DHT22;32155;54.076;12.092;2022-07-09T16:06:33;19.80;99.90
46458;DHT22;32155;54.076;12.092;2022-07-09T16:09:05;19.90;99.90
46458;DHT22;32155;54.076;12.092;2022-07-09T16:11:39;19.90;99.90
46458;DHT22;32155;54.076;12.092;2022-07-09T16:27:14;20.10;99.90
46458;DHT22;32155;54.076;12.092;2022-07-09T17:08:35;19.20;99.90
46458;DHT22;32155;54.076;12.092;2022-07-09T17:15:07;18.80;99.90
46458;DHT22;32155;54.076;12.092;2022-07-09T17:39:30;18.40;99.90
46458;DHT22;32155;54.076;12.092;2022-07-09T17:58:04;18.20;99.90
46458;DHT22;32155;54.076;12.092;2022-07-09T18:17:31;17.80;99.90
46458;DHT22;32155;54.076;12.092;2022-07-09T18:29:11;17.60;99.90
46458;DHT22;32155;54.076;12.092;2022-07-09T18:35:16;17.40;99.90
46458;DHT22;32155;54.076;12.092;2022-07-09T18:40:53;17.10;99.90
46458;DHT22;32155;54.076;12.092;2022-07-09T19:31:57;16.80;99.90
46458;DHT22;32155;54.076;12.092;2022-07-09T19:34:49;16.80;99.90
46458;DHT22;32155;54.076;12.092;2022-07-09T20:19:02;16.30;99.90
46458;DHT22;32155;54.076;12.092;2022-07-09T20:21:27;16.30;99.90
46458;DHT22;32155;54.076;12.092;2022-07-09T20:24:21;16.20;99.90
46458;DHT22;32155;54.076;12.092;2022-07-09T20:27:03;16.10;99.90
46458;DHT22;32155;54.076;12.092;2022-07-09T20:29:34;16.10;99.90
46458;DHT22;32155;54.076;12.092;2022-07-09T20:32:04;16.10;99.90
46458;DHT22;32155;54.076;12.092;2022-07-09T20:34:51;16.00;99.90
46458;DHT22;32155;54.076;12.092;2022-07-09T20:37:26;15.90;99.90
46458;DHT22;32155;54.076;12.092;2022-07-09T20:39:55;15.80;99.90
46458;DHT22;32155;54.076;12.092;2022-07-09T20:45:24;15.80;99.90
46458;DHT22;32155;54.076;12.092;2022-07-09T20:47:56;15.80;99.90
46458;DHT22;32155;54.076;12.092;2022-07-09T20:53:13;15.80;99.90
46458;DHT22;32155;54.076;12.092;2022-07-09T20:55:42;15.80;99.90
46458;DHT22;32155;54.076;12.092;2022-07-09T20:58:18;15.80;99.90
46458;DHT22;32155;54.076;12.092;2022-07-09T21:00:56;15.80;99.90
46458;DHT22;32155;54.076;12.092;2022-07-09T21:03:24;15.80;99.90
46458;DHT22;32155;54.076;12.092;2022-07-09T21:05:50;15.90;99.90
46458;DHT22;32155;54.076;12.092;2022-07-09T21:08:16;15.80;99.90
46458;DHT22;32155;54.076;12.092;2022-07-09T21:10:49;15.80;99.90
